sensor_id;sensor_type;location;lat;lon;timestamp;pressure;altitude;pressure_sealevel;temperature;humidity
44663;BME280;30381;52.754;18.258;2023-02-13T02:27:45;102485.98;;;4.40;100.00
44663;BME280;30381;52.754;18.258;2023-02-13T02:52:05;102505.04;;;4.48;100.00
44663;BME280;30381;52.754;18.258;2023-02-13T02:58:50;102508.48;;;4.49;100.00
44663;BME280;30381;52.754;18.258;2023-02-13T03:02:19;102502.95;;;4.49;100.00
44663;BME280;30381;52.754;18.258;2023-02-13T03:05:34;102498.64;;;4.49;100.00
44663;BME280;30381;52.754;18.258;2023-02-13T04:12:06;102522.17;;;4.48;100.00
44663;BME280;30381;52.754;18.258;2023-02-13T04:15:22;102519.44;;;4.47;100.00
44663;BME280;30381;52.754;18.258;2023-02-13T04:18:37;102521.31;;;4.46;100.00
44663;BME280;30381;52.754;18.258;2023-02-13T04:21:25;102527.71;;;4.44;100.00
44663;BME280;30381;52.754;18.258;2023-02-13T04:23:58;102526.46;;;4.42;100.00
44663;BME280;30381;52.754;18.258;2023-02-13T04:26:35;102524.38;;;4.42;100.00
44663;BME280;30381;52.754;18.258;2023-02-13T04:29:07;102526.33;;;4.42;100.00
44663;BME280;30381;52.754;18.258;2023-02-13T04:35:05;102528.82;;;4.42;100.00
44663;BME280;30381;52.754;18.258;2023-02-13T04:38:01;102526.16;;;4.42;100.00
44663;BME280;30381;52.754;18.258;2023-02-13T04:40:44;102525.81;;;4.42;100.00
44663;BME280;30381;52.754;18.258;2023-02-13T04:43:28;102524.58;;;4.42;100.00
44663;BME280;30381;52.754;18.258;2023-02-13T04:49:56;102533.09;;;4.40;100.00
44663;BME280;30381;52.754;18.258;2023-02-13T04:52:31;102528.72;;;4.39;100.00
44663;BME280;30381;52.754;18.258;2023-02-13T04:55:25;102531.10;;;4.39;100.00
44663;BME280;30381;52.754;18.258;2023-02-13T04:57:55;102528.17;;;4.40;100.00
44663;BME280;30381;52.754;18.258;2023-02-13T05:00:25;102529.42;;;4.39;100.00
44663;BME280;30381;52.754;18.258;2023-02-13T05:03:06;102526.05;;;4.39;100.00
44663;BME280;30381;52.754;18.258;2023-02-13T05:06:00;102531.60;;;4.39;100.00
44663;BME280;30381;52.754;18.258;2023-02-13T05:08:30;102531.35;;;4.40;100.00
44663;BME280;30381;52.754;18.258;2023-02-13T05:13:59;102525.98;;;4.40;100.00
44663;BME280;30381;52.754;18.258;2023-02-13T05:16:59;102526.92;;;4.40;100.00
44663;BME280;30381;52.754;18.258;2023-02-13T05:19:36;102528.41;;;4.39;100.00
44663;BME280;30381;52.754;18.258;2023-02-13T05:22:08;102528.04;;;4.39;100.00
44663;BME280;30381;52.754;18.258;2023-02-13T05:25:12;102526.58;;;4.38;100.00
44663;BME280;30381;52.754;18.258;2023-02-13T05:43:38;102529.23;;;4.34;100.00
44663;BME280;30381;52.754;18.258;2023-02-13T05:50:19;102529.31;;;4.35;100.00
44663;BME280;30381;52.754;18.258;2023-02-13T05:52:46;102525.76;;;4.35;100.00
44663;BME280;30381;52.754;18.258;2023-02-13T05:55:12;102529.03;;;4.36;100.00
44663;BME280;30381;52.754;18.258;2023-02-13T05:57:39;102527.56;;;4.37;100.00
44663;BME280;30381;52.754;18.258;2023-02-13T06:00:07;102527.88;;;4.37;100.00
44663;BME280;30381;52.754;18.258;2023-02-13T06:02:33;102531.53;;;4.38;100.00
44663;BME280;30381;52.754;18.258;2023-02-13T06:05:00;102533.17;;;4.38;100.00
44663;BME280;30381;52.754;18.258;2023-02-13T06:07:26;102536.73;;;4.38;100.00
44663;BME280;30381;52.754;18.258;2023-02-13T06:09:53;102544.11;;;4.38;100.00
44663;BME280;30381;52.754;18.258;2023-02-13T06:12:28;102543.39;;;4.38;100.00
44663;BME280;30381;52.754;18.258;2023-02-13T06:14:54;102541.10;;;4.37;100.00
44663;BME280;30381;52.754;18.258;2023-02-13T06:17:23;102544.52;;;4.37;100.00
44663;BME280;30381;52.754;18.258;2023-02-13T06:19:49;102541.95;;;4.38;100.00
44663;BME280;30381;52.754;18.258;2023-02-13T06:22:16;102543.61;;;4.37;100.00
44663;BME280;30381;52.754;18.258;2023-02-13T06:24:42;102544.95;;;4.38;100.00
44663;BME280;30381;52.754;18.258;2023-02-13T06:27:08;102548.17;;;4.38;100.00
44663;BME280;30381;52.754;18.258;2023-02-13T06:29:37;102542.45;;;4.38;100.00
44663;BME280;30381;52.754;18.258;2023-02-13T06:32:06;102540.31;;;4.38;100.00
44663;BME280;30381;52.754;18.258;2023-02-13T06:34:53;102536.77;;;4.38;100.00
44663;BME280;30381;52.754;18.258;2023-02-13T06:37:19;102540.90;;;4.37;100.00
44663;BME280;30381;52.754;18.258;2023-02-13T06:39:45;102542.47;;;4.38;100.00
44663;BME280;30381;52.754;18.258;2023-02-13T06:42:11;102542.65;;;4.38;100.00
44663;BME280;30381;52.754;18.258;2023-02-13T06:44:38;102544.79;;;4.38;100.00
44663;BME280;30381;52.754;18.258;2023-02-13T06:47:04;102545.55;;;4.39;100.00
44663;BME280;30381;52.754;18.258;2023-02-13T06:49:31;102549.17;;;4.39;100.00
44663;BME280;30381;52.754;18.258;2023-02-13T06:51:57;102551.61;;;4.39;100.00
44663;BME280;30381;52.754;18.258;2023-02-13T06:54:26;102555.70;;;4.39;100.00
44663;BME280;30381;52.754;18.258;2023-02-13T06:57:02;102555.40;;;4.39;100.00
44663;BME280;30381;52.754;18.258;2023-02-13T06:59:28;102556.88;;;4.38;100.00
44663;BME280;30381;52.754;18.258;2023-02-13T07:01:55;102552.27;;;4.38;100.00
44663;BME280;30381;52.754;18.258;2023-02-13T07:04:22;102547.77;;;4.38;100.00
44663;BME280;30381;52.754;18.258;2023-02-13T07:07:15;102549.37;;;4.38;100.00
44663;BME280;30381;52.754;18.258;2023-02-13T07:09:54;102550.25;;;4.39;100.00
44663;BME280;30381;52.754;18.258;2023-02-13T07:12:20;102551.29;;;4.39;100.00
44663;BME280;30381;52.754;18.258;2023-02-13T07:14:47;102549.98;;;4.39;100.00
44663;BME280;30381;52.754;18.258;2023-02-13T07:17:13;102548.18;;;4.40;100.00
44663;BME280;30381;52.754;18.258;2023-02-13T07:19:41;102550.57;;;4.41;100.00
44663;BME280;30381;52.754;18.258;2023-02-13T07:22:20;102550.98;;;4.42;100.00
44663;BME280;30381;52.754;18.258;2023-02-13T07:25:13;102560.36;;;4.43;100.00
44663;BME280;30381;52.754;18.258;2023-02-13T07:27:41;102559.45;;;4.45;100.00
44663;BME280;30381;52.754;18.258;2023-02-13T07:30:25;102555.34;;;4.47;100.00
44663;BME280;30381;52.754;18.258;2023-02-13T07:33:08;102556.50;;;4.48;100.00
44663;BME280;30381;52.754;18.258;2023-02-13T07:35:38;102557.55;;;4.49;100.00
44663;BME280;30381;52.754;18.258;2023-02-13T07:38:16;102558.27;;;4.51;100.00
44663;BME280;30381;52.754;18.258;2023-02-13T07:41:11;102559.35;;;4.53;100.00
44663;BME280;30381;52.754;18.258;2023-02-13T07:43:46;102554.98;;;4.56;100.00
44663;BME280;30381;52.754;18.258;2023-02-13T07:46:14;102556.30;;;4.58;100.00
44663;BME280;30381;52.754;18.258;2023-02-13T07:48:40;102550.44;;;4.60;100.00
44663;BME280;30381;52.754;18.258;2023-02-13T07:51:06;102550.44;;;4.62;100.00
44663;BME280;30381;52.754;18.258;2023-02-13T07:53:38;102543.45;;;4.64;100.00
44663;BME280;30381;52.754;18.258;2023-02-13T07:56:06;102543.99;;;4.65;100.00
44663;BME280;30381;52.754;18.258;2023-02-13T07:58:34;102542.84;;;4.66;100.00
44663;BME280;30381;52.754;18.258;2023-02-13T08:01:14;102540.60;;;4.69;100.00
44663;BME280;30381;52.754;18.258;2023-02-13T08:03:46;102545.27;;;4.71;100.00
44663;BME280;30381;52.754;18.258;2023-02-13T08:06:15;102544.38;;;4.72;100.00
44663;BME280;30381;52.754;18.258;2023-02-13T08:08:41;102540.31;;;4.74;100.00
44663;BME280;30381;52.754;18.258;2023-02-13T08:11:21;102540.59;;;4.77;100.00
44663;BME280;30381;52.754;18.258;2023-02-13T08:14:07;102543.79;;;4.80;100.00
44663;BME280;30381;52.754;18.258;2023-02-13T08:16:37;102534.44;;;4.83;100.00
44663;BME280;30381;52.754;18.258;2023-02-13T08:19:06;102532.02;;;4.85;100.00
44663;BME280;30381;52.754;18.258;2023-02-13T08:21:38;102528.45;;;4.87;100.00
44663;BME280;30381;52.754;18.258;2023-02-13T08:24:10;102526.09;;;4.91;100.00
44663;BME280;30381;52.754;18.258;2023-02-13T08:26:39;102520.98;;;4.94;100.00
44663;BME280;30381;52.754;18.258;2023-02-13T09:14:01;102506.17;;;5.48;100.00
44663;BME280;30381;52.754;18.258;2023-02-13T09:16:31;102500.02;;;5.50;100.00
44663;BME280;30381;52.754;18.258;2023-02-13T09:22:51;102499.67;;;5.53;100.00
44663;BME280;30381;52.754;18.258;2023-02-13T09:25:23;102500.77;;;5.56;100.00
44663;BME280;30381;52.754;18.258;2023-02-13T09:27:49;102504.48;;;5.59;100.00
44663;BME280;30381;52.754;18.258;2023-02-13T09:30:18;102505.94;;;5.62;100.00
44663;BME280;30381;52.754;18.258;2023-02-13T09:33:11;102509.77;;;5.65;100.00
44663;BME280;30381;52.754;18.258;2023-02-13T09:38:40;102505.20;;;5.71;100.00
44663;BME280;30381;52.754;18.258;2023-02-13T09:41:42;102511.45;;;5.73;100.00
44663;BME280;30381;52.754;18.258;2023-02-13T09:44:33;102514.75;;;5.76;100.00
44663;BME280;30381;52.754;18.258;2023-02-13T09:47:46;102516.14;;;5.78;100.00
44663;BME280;30381;52.754;18.258;2023-02-13T09:50:27;102517.30;;;5.78;100.00
44663;BME280;30381;52.754;18.258;2023-02-13T09:52:56;102518.48;;;5.79;100.00
44663;BME280;30381;52.754;18.258;2023-02-13T09:55:45;102524.98;;;5.80;100.00
44663;BME280;30381;52.754;18.258;2023-02-13T10:01:35;102515.98;;;5.81;100.00
44663;BME280;30381;52.754;18.258;2023-02-13T10:06:54;102513.66;;;5.84;100.00
44663;BME280;30381;52.754;18.258;2023-02-13T10:09:39;102508.23;;;5.88;100.00
44663;BME280;30381;52.754;18.258;2023-02-13T10:14:50;102509.61;;;5.94;100.00
44663;BME280;30381;52.754;18.258;2023-02-13T10:17:31;102506.16;;;5.99;100.00
44663;BME280;30381;52.754;18.258;2023-02-13T10:28:30;102502.51;;;6.09;100.00
44663;BME280;30381;52.754;18.258;2023-02-13T10:31:17;102502.07;;;6.23;100.00
44663;BME280;30381;52.754;18.258;2023-02-13T10:34:05;102503.35;;;6.46;100.00
44663;BME280;30381;52.754;18.258;2023-02-13T10:36:44;102504.61;;;6.65;100.00
44663;BME280;30381;52.754;18.258;2023-02-13T10:39:24;102498.36;;;6.82;100.00
44663;BME280;30381;52.754;18.258;2023-02-13T10:42:02;102498.82;;;6.98;100.00
44663;BME280;30381;52.754;18.258;2023-02-13T10:44:41;102507.36;;;7.14;100.00
44663;BME280;30381;52.754;18.258;2023-02-13T11:02:22;102494.13;;;7.92;100.00
44663;BME280;30381;52.754;18.258;2023-02-13T11:04:59;102495.78;;;7.84;100.00
44663;BME280;30381;52.754;18.258;2023-02-13T11:07:45;102491.58;;;7.72;100.00
44663;BME280;30381;52.754;18.258;2023-02-13T11:10:18;102490.38;;;7.62;100.00
44663;BME280;30381;52.754;18.258;2023-02-13T11:12:50;102492.11;;;7.52;100.00
44663;BME280;30381;52.754;18.258;2023-02-13T11:15:31;102495.02;;;7.44;100.00
44663;BME280;30381;52.754;18.258;2023-02-13T11:18:20;102493.92;;;7.37;100.00
44663;BME280;30381;52.754;18.258;2023-02-13T11:21:40;102496.17;;;7.31;100.00
44663;BME280;30381;52.754;18.258;2023-02-13T11:24:16;102486.91;;;7.29;100.00
44663;BME280;30381;52.754;18.258;2023-02-13T11:27:31;102482.79;;;7.34;100.00
44663;BME280;30381;52.754;18.258;2023-02-13T11:33:21;102475.51;;;7.60;100.00
44663;BME280;30381;52.754;18.258;2023-02-13T11:36:04;102483.04;;;7.76;100.00
44663;BME280;30381;52.754;18.258;2023-02-13T11:42:03;102485.18;;;7.94;100.00
44663;BME280;30381;52.754;18.258;2023-02-13T11:44:29;102480.50;;;8.01;100.00
44663;BME280;30381;52.754;18.258;2023-02-13T11:47:02;102472.60;;;8.08;100.00
44663;BME280;30381;52.754;18.258;2023-02-13T11:49:31;102475.05;;;8.11;100.00
44663;BME280;30381;52.754;18.258;2023-02-13T11:52:12;102473.48;;;8.08;100.00
44663;BME280;30381;52.754;18.258;2023-02-13T11:55:28;102474.48;;;7.98;100.00
44663;BME280;30381;52.754;18.258;2023-02-13T12:00:39;102468.58;;;7.82;100.00
44663;BME280;30381;52.754;18.258;2023-02-13T12:06:03;102464.16;;;7.69;100.00
44663;BME280;30381;52.754;18.258;2023-02-13T12:08:35;102472.52;;;7.60;100.00
44663;BME280;30381;52.754;18.258;2023-02-13T12:11:37;102477.20;;;7.53;100.00
44663;BME280;30381;52.754;18.258;2023-02-13T12:14:25;102471.94;;;7.46;100.00
44663;BME280;30381;52.754;18.258;2023-02-13T12:17:05;102468.18;;;7.38;100.00
44663;BME280;30381;52.754;18.258;2023-02-13T12:19:50;102463.81;;;7.28;100.00
44663;BME280;30381;52.754;18.258;2023-02-13T12:26:00;102457.44;;;7.12;100.00
44663;BME280;30381;52.754;18.258;2023-02-13T12:31:52;102440.80;;;7.05;100.00
44663;BME280;30381;52.754;18.258;2023-02-13T12:38:03;102425.52;;;7.04;100.00
44663;BME280;30381;52.754;18.258;2023-02-13T12:47:14;102424.83;;;7.05;100.00
44663;BME280;30381;52.754;18.258;2023-02-13T13:16:22;102422.70;;;6.71;100.00
44663;BME280;30381;52.754;18.258;2023-02-13T13:27:36;102410.16;;;6.60;100.00
44663;BME280;30381;52.754;18.258;2023-02-13T13:30:20;102406.70;;;6.55;100.00
44663;BME280;30381;52.754;18.258;2023-02-13T13:32:56;102411.02;;;6.55;100.00
44663;BME280;30381;52.754;18.258;2023-02-13T13:35:31;102410.63;;;6.55;100.00
44663;BME280;30381;52.754;18.258;2023-02-13T13:43:32;102418.48;;;6.46;100.00
44663;BME280;30381;52.754;18.258;2023-02-13T13:51:51;102429.09;;;6.32;100.00
44663;BME280;30381;52.754;18.258;2023-02-13T13:54:24;102419.57;;;6.29;100.00
44663;BME280;30381;52.754;18.258;2023-02-13T13:57:23;102403.42;;;6.26;100.00
44663;BME280;30381;52.754;18.258;2023-02-13T14:00:40;102411.51;;;6.22;100.00
44663;BME280;30381;52.754;18.258;2023-02-13T14:08:51;102437.00;;;6.15;100.00
44663;BME280;30381;52.754;18.258;2023-02-13T14:19:00;102435.58;;;6.02;100.00
44663;BME280;30381;52.754;18.258;2023-02-13T14:22:35;102433.04;;;5.95;100.00
44663;BME280;30381;52.754;18.258;2023-02-13T14:29:55;102451.81;;;5.84;100.00
44663;BME280;30381;52.754;18.258;2023-02-13T14:33:27;102447.70;;;5.80;100.00
44663;BME280;30381;52.754;18.258;2023-02-13T14:36:45;102444.02;;;5.76;100.00
44663;BME280;30381;52.754;18.258;2023-02-13T14:39:34;102437.46;;;5.72;100.00
44663;BME280;30381;52.754;18.258;2023-02-13T14:49:35;102418.25;;;5.60;100.00
44663;BME280;30381;52.754;18.258;2023-02-13T14:53:04;102423.26;;;5.57;100.00
44663;BME280;30381;52.754;18.258;2023-02-13T15:17:16;102393.73;;;5.39;100.00
44663;BME280;30381;52.754;18.258;2023-02-13T15:20:45;102393.77;;;5.37;100.00
44663;BME280;30381;52.754;18.258;2023-02-13T15:34:53;102388.67;;;5.29;100.00
44663;BME280;30381;52.754;18.258;2023-02-13T15:47:34;102389.67;;;5.21;100.00
44663;BME280;30381;52.754;18.258;2023-02-13T16:04:08;102400.95;;;5.08;100.00
44663;BME280;30381;52.754;18.258;2023-02-13T16:10:42;102408.87;;;5.05;100.00
44663;BME280;30381;52.754;18.258;2023-02-13T16:14:03;102418.35;;;5.03;100.00
44663;BME280;30381;52.754;18.258;2023-02-13T16:16:59;102416.33;;;5.02;100.00
44663;BME280;30381;52.754;18.258;2023-02-13T16:23:28;102403.46;;;4.97;100.00
44663;BME280;30381;52.754;18.258;2023-02-13T16:26:11;102397.79;;;4.96;100.00
44663;BME280;30381;52.754;18.258;2023-02-13T16:28:49;102402.13;;;4.96;100.00
44663;BME280;30381;52.754;18.258;2023-02-13T16:31:23;102404.42;;;4.94;100.00
44663;BME280;30381;52.754;18.258;2023-02-13T16:36:49;102405.05;;;4.92;100.00
44663;BME280;30381;52.754;18.258;2023-02-13T16:39:32;102408.73;;;4.91;100.00
44663;BME280;30381;52.754;18.258;2023-02-13T16:42:20;102403.21;;;4.89;100.00
44663;BME280;30381;52.754;18.258;2023-02-13T16:45:38;102408.58;;;4.87;100.00
44663;BME280;30381;52.754;18.258;2023-02-13T16:48:36;102409.86;;;4.86;100.00
44663;BME280;30381;52.754;18.258;2023-02-13T16:54:56;102404.94;;;4.82;100.00
44663;BME280;30381;52.754;18.258;2023-02-13T16:57:51;102411.56;;;4.81;100.00
44663;BME280;30381;52.754;18.258;2023-02-13T17:00:36;102416.20;;;4.78;100.00
44663;BME280;30381;52.754;18.258;2023-02-13T17:03:33;102413.75;;;4.78;100.00
44663;BME280;30381;52.754;18.258;2023-02-13T17:06:22;102404.97;;;4.76;100.00
44663;BME280;30381;52.754;18.258;2023-02-13T17:09:55;102402.43;;;4.75;100.00
44663;BME280;30381;52.754;18.258;2023-02-13T17:12:52;102399.23;;;4.73;100.00
44663;BME280;30381;52.754;18.258;2023-02-13T17:20:06;102399.77;;;4.68;100.00
44663;BME280;30381;52.754;18.258;2023-02-13T17:26:35;102398.98;;;4.62;100.00
44663;BME280;30381;52.754;18.258;2023-02-13T17:29:12;102401.60;;;4.60;100.00
44663;BME280;30381;52.754;18.258;2023-02-13T17:31:54;102405.00;;;4.58;100.00
44663;BME280;30381;52.754;18.258;2023-02-13T17:34:56;102402.98;;;4.56;100.00
44663;BME280;30381;52.754;18.258;2023-02-13T17:37:57;102400.95;;;4.54;100.00
44663;BME280;30381;52.754;18.258;2023-02-13T17:40:46;102397.16;;;4.53;100.00
44663;BME280;30381;52.754;18.258;2023-02-13T17:43:19;102400.09;;;4.52;100.00
44663;BME280;30381;52.754;18.258;2023-02-13T17:46:01;102401.40;;;4.52;100.00
44663;BME280;30381;52.754;18.258;2023-02-13T17:53:28;102409.76;;;4.47;100.00
44663;BME280;30381;52.754;18.258;2023-02-13T17:56:21;102410.39;;;4.44;100.00
44663;BME280;30381;52.754;18.258;2023-02-13T18:05:11;102430.77;;;4.37;100.00
44663;BME280;30381;52.754;18.258;2023-02-13T18:08:09;102436.07;;;4.34;100.00
44663;BME280;30381;52.754;18.258;2023-02-13T18:11:08;102436.54;;;4.31;100.00
44663;BME280;30381;52.754;18.258;2023-02-13T18:14:13;102439.56;;;4.26;100.00
44663;BME280;30381;52.754;18.258;2023-02-13T18:21:01;102438.30;;;4.13;100.00
44663;BME280;30381;52.754;18.258;2023-02-13T18:27:16;102445.28;;;4.08;100.00
44663;BME280;30381;52.754;18.258;2023-02-13T18:30:27;102452.02;;;4.06;100.00
44663;BME280;30381;52.754;18.258;2023-02-13T18:33:57;102457.59;;;4.06;100.00
44663;BME280;30381;52.754;18.258;2023-02-13T18:37:04;102473.75;;;4.07;100.00
44663;BME280;30381;52.754;18.258;2023-02-13T18:40:12;102466.13;;;4.08;100.00
44663;BME280;30381;52.754;18.258;2023-02-13T18:43:08;102472.41;;;4.09;100.00
44663;BME280;30381;52.754;18.258;2023-02-13T18:46:16;102468.59;;;4.10;100.00
44663;BME280;30381;52.754;18.258;2023-02-13T18:49:12;102465.20;;;4.12;100.00
44663;BME280;30381;52.754;18.258;2023-02-13T18:51:55;102465.92;;;4.13;100.00
44663;BME280;30381;52.754;18.258;2023-02-13T19:02:17;102476.25;;;4.19;100.00
44663;BME280;30381;52.754;18.258;2023-02-13T19:19:47;102487.25;;;4.27;100.00
44663;BME280;30381;52.754;18.258;2023-02-13T19:30:13;102470.62;;;4.26;100.00
44663;BME280;30381;52.754;18.258;2023-02-13T19:36:52;102475.95;;;4.24;100.00
44663;BME280;30381;52.754;18.258;2023-02-13T19:43:53;102482.73;;;4.22;100.00
44663;BME280;30381;52.754;18.258;2023-02-13T19:58:12;102495.44;;;4.13;100.00
44663;BME280;30381;52.754;18.258;2023-02-13T20:00:38;102495.67;;;4.10;100.00
44663;BME280;30381;52.754;18.258;2023-02-13T20:03:06;102488.20;;;4.07;100.00
44663;BME280;30381;52.754;18.258;2023-02-13T20:05:40;102487.07;;;4.02;100.00
44663;BME280;30381;52.754;18.258;2023-02-13T20:08:05;102482.02;;;3.95;100.00
44663;BME280;30381;52.754;18.258;2023-02-13T20:10:31;102484.86;;;3.87;100.00
44663;BME280;30381;52.754;18.258;2023-02-13T20:12:58;102484.98;;;3.79;100.00
44663;BME280;30381;52.754;18.258;2023-02-13T20:15:24;102482.45;;;3.70;100.00
44663;BME280;30381;52.754;18.258;2023-02-13T20:17:50;102487.23;;;3.63;100.00
44663;BME280;30381;52.754;18.258;2023-02-13T20:20:16;102489.91;;;3.56;100.00
44663;BME280;30381;52.754;18.258;2023-02-13T20:22:47;102498.00;;;3.47;100.00
44663;BME280;30381;52.754;18.258;2023-02-13T20:25:14;102499.58;;;3.40;100.00
44663;BME280;30381;52.754;18.258;2023-02-13T20:27:44;102507.55;;;3.33;100.00
44663;BME280;30381;52.754;18.258;2023-02-13T20:30:12;102506.84;;;3.27;100.00
44663;BME280;30381;52.754;18.258;2023-02-13T20:32:41;102505.33;;;3.22;100.00
44663;BME280;30381;52.754;18.258;2023-02-13T20:35:09;102510.48;;;3.17;100.00
44663;BME280;30381;52.754;18.258;2023-02-13T20:37:44;102514.89;;;3.12;100.00
44663;BME280;30381;52.754;18.258;2023-02-13T20:40:14;102512.13;;;3.07;100.00
44663;BME280;30381;52.754;18.258;2023-02-13T20:42:51;102514.41;;;3.01;100.00
44663;BME280;30381;52.754;18.258;2023-02-13T20:45:38;102514.01;;;2.96;100.00
44663;BME280;30381;52.754;18.258;2023-02-13T20:48:05;102514.01;;;2.92;100.00
44663;BME280;30381;52.754;18.258;2023-02-13T20:54:56;102516.45;;;2.82;100.00
44663;BME280;30381;52.754;18.258;2023-02-13T21:04:48;102517.27;;;2.67;100.00
44663;BME280;30381;52.754;18.258;2023-02-13T21:07:22;102519.99;;;2.64;100.00
44663;BME280;30381;52.754;18.258;2023-02-13T21:09:51;102517.02;;;2.62;100.00
44663;BME280;30381;52.754;18.258;2023-02-13T21:12:20;102521.39;;;2.60;100.00
44663;BME280;30381;52.754;18.258;2023-02-13T21:14:46;102523.67;;;2.57;100.00
44663;BME280;30381;52.754;18.258;2023-02-13T21:17:15;102524.45;;;2.54;100.00
44663;BME280;30381;52.754;18.258;2023-02-13T21:19:48;102523.35;;;2.51;100.00
44663;BME280;30381;52.754;18.258;2023-02-13T21:22:15;102521.23;;;2.47;100.00
44663;BME280;30381;52.754;18.258;2023-02-13T21:24:56;102520.65;;;2.43;100.00
44663;BME280;30381;52.754;18.258;2023-02-13T21:27:22;102519.46;;;2.40;100.00
44663;BME280;30381;52.754;18.258;2023-02-13T21:29:48;102514.58;;;2.37;100.00
44663;BME280;30381;52.754;18.258;2023-02-13T21:32:23;102514.05;;;2.35;100.00
44663;BME280;30381;52.754;18.258;2023-02-13T21:34:50;102515.21;;;2.33;100.00
44663;BME280;30381;52.754;18.258;2023-02-13T21:37:16;102518.52;;;2.29;100.00
44663;BME280;30381;52.754;18.258;2023-02-13T21:39:51;102519.99;;;2.27;100.00
44663;BME280;30381;52.754;18.258;2023-02-13T21:42:17;102516.30;;;2.24;100.00
44663;BME280;30381;52.754;18.258;2023-02-13T21:44:43;102518.83;;;2.22;100.00
44663;BME280;30381;52.754;18.258;2023-02-13T21:47:10;102521.38;;;2.19;100.00
44663;BME280;30381;52.754;18.258;2023-02-13T21:49:39;102519.17;;;2.16;100.00
44663;BME280;30381;52.754;18.258;2023-02-13T21:52:20;102522.02;;;2.14;100.00
44663;BME280;30381;52.754;18.258;2023-02-13T21:54:47;102518.55;;;2.10;100.00
44663;BME280;30381;52.754;18.258;2023-02-13T21:57:16;102519.45;;;2.09;100.00
44663;BME280;30381;52.754;18.258;2023-02-13T21:59:42;102513.96;;;2.06;100.00
44663;BME280;30381;52.754;18.258;2023-02-13T22:02:08;102513.12;;;2.04;100.00
44663;BME280;30381;52.754;18.258;2023-02-13T22:04:35;102519.51;;;2.02;100.00
44663;BME280;30381;52.754;18.258;2023-02-13T22:07:01;102517.53;;;2.00;100.00
44663;BME280;30381;52.754;18.258;2023-02-13T22:09:27;102515.45;;;1.98;100.00
44663;BME280;30381;52.754;18.258;2023-02-13T22:11:53;102517.71;;;1.96;100.00
44663;BME280;30381;52.754;18.258;2023-02-13T22:14:20;102520.36;;;1.94;100.00
44663;BME280;30381;52.754;18.258;2023-02-13T22:16:49;102518.86;;;1.93;100.00
44663;BME280;30381;52.754;18.258;2023-02-13T22:19:28;102520.70;;;1.93;100.00
44663;BME280;30381;52.754;18.258;2023-02-13T22:21:54;102521.00;;;1.91;100.00
44663;BME280;30381;52.754;18.258;2023-02-13T22:24:20;102517.49;;;1.91;100.00
44663;BME280;30381;52.754;18.258;2023-02-13T22:26:52;102515.16;;;1.91;100.00
44663;BME280;30381;52.754;18.258;2023-02-13T22:29:21;102516.80;;;1.91;100.00
44663;BME280;30381;52.754;18.258;2023-02-13T22:31:48;102522.23;;;1.89;100.00
44663;BME280;30381;52.754;18.258;2023-02-13T22:34:14;102523.67;;;1.89;100.00
44663;BME280;30381;52.754;18.258;2023-02-13T22:36:41;102527.23;;;1.89;100.00
44663;BME280;30381;52.754;18.258;2023-02-13T22:39:15;102523.44;;;1.88;100.00
44663;BME280;30381;52.754;18.258;2023-02-13T22:41:41;102525.84;;;1.87;100.00
44663;BME280;30381;52.754;18.258;2023-02-13T22:44:10;102528.45;;;1.85;100.00
44663;BME280;30381;52.754;18.258;2023-02-13T22:46:39;102527.06;;;1.83;100.00
44663;BME280;30381;52.754;18.258;2023-02-13T22:49:05;102522.50;;;1.80;100.00
44663;BME280;30381;52.754;18.258;2023-02-13T22:51:34;102526.34;;;1.79;100.00
44663;BME280;30381;52.754;18.258;2023-02-13T22:54:01;102521.07;;;1.76;100.00
44663;BME280;30381;52.754;18.258;2023-02-13T22:56:29;102523.54;;;1.74;100.00
44663;BME280;30381;52.754;18.258;2023-02-13T22:59:11;102521.23;;;1.72;100.00
44663;BME280;30381;52.754;18.258;2023-02-13T23:01:40;102519.34;;;1.72;100.00
44663;BME280;30381;52.754;18.258;2023-02-13T23:04:06;102528.98;;;1.71;100.00
44663;BME280;30381;52.754;18.258;2023-02-13T23:06:32;102534.50;;;1.71;100.00
44663;BME280;30381;52.754;18.258;2023-02-13T23:08:59;102533.36;;;1.70;100.00
44663;BME280;30381;52.754;18.258;2023-02-13T23:11:27;102530.63;;;1.68;100.00
44663;BME280;30381;52.754;18.258;2023-02-13T23:14:12;102531.17;;;1.66;100.00
44663;BME280;30381;52.754;18.258;2023-02-13T23:16:39;102532.43;;;1.64;100.00
44663;BME280;30381;52.754;18.258;2023-02-13T23:19:24;102536.20;;;1.62;100.00
44663;BME280;30381;52.754;18.258;2023-02-13T23:21:52;102530.65;;;1.60;100.00
44663;BME280;30381;52.754;18.258;2023-02-13T23:24:18;102537.79;;;1.58;100.00
44663;BME280;30381;52.754;18.258;2023-02-13T23:26:44;102531.18;;;1.56;100.00
44663;BME280;30381;52.754;18.258;2023-02-13T23:29:10;102525.98;;;1.53;100.00
44663;BME280;30381;52.754;18.258;2023-02-13T23:31:36;102524.09;;;1.50;100.00
44663;BME280;30381;52.754;18.258;2023-02-13T23:34:03;102521.77;;;1.48;100.00
44663;BME280;30381;52.754;18.258;2023-02-13T23:36:30;102523.45;;;1.45;100.00
44663;BME280;30381;52.754;18.258;2023-02-13T23:38:56;102517.61;;;1.42;100.00
44663;BME280;30381;52.754;18.258;2023-02-13T23:41:23;102516.45;;;1.39;100.00
44663;BME280;30381;52.754;18.258;2023-02-13T23:43:49;102515.25;;;1.37;100.00
44663;BME280;30381;52.754;18.258;2023-02-13T23:46:15;102521.21;;;1.35;100.00
44663;BME280;30381;52.754;18.258;2023-02-13T23:48:42;102521.39;;;1.34;100.00